sensor_id;sensor_type;location;lat;lon;timestamp;temperature;humidity
17998;DHT22;9124;48.144;17.098;2022-08-14T00:00:48;19.40;95.10
17998;DHT22;9124;48.144;17.098;2022-08-14T00:04:24;19.40;95.30
17998;DHT22;9124;48.144;17.098;2022-08-14T00:08:02;19.30;95.50
17998;DHT22;9124;48.144;17.098;2022-08-14T00:11:39;19.30;95.80
17998;DHT22;9124;48.144;17.098;2022-08-14T00:15:31;19.30;95.90
17998;DHT22;9124;48.144;17.098;2022-08-14T00:19:10;19.30;96.30
17998;DHT22;9124;48.144;17.098;2022-08-14T00:22:47;19.30;96.30
17998;DHT22;9124;48.144;17.098;2022-08-14T00:26:24;19.30;96.40
17998;DHT22;9124;48.144;17.098;2022-08-14T00:30:01;19.20;96.60
17998;DHT22;9124;48.144;17.098;2022-08-14T00:33:38;19.20;96.80
17998;DHT22;9124;48.144;17.098;2022-08-14T00:37:14;19.20;97.00
17998;DHT22;9124;48.144;17.098;2022-08-14T00:40:51;19.20;97.10
17998;DHT22;9124;48.144;17.098;2022-08-14T00:44:28;19.20;97.30
17998;DHT22;9124;48.144;17.098;2022-08-14T00:48:06;19.10;97.50
17998;DHT22;9124;48.144;17.098;2022-08-14T00:51:42;19.20;97.70
17998;DHT22;9124;48.144;17.098;2022-08-14T00:55:20;19.10;97.80
17998;DHT22;9124;48.144;17.098;2022-08-14T00:58:57;19.10;97.90
17998;DHT22;9124;48.144;17.098;2022-08-14T01:02:35;19.10;98.00
17998;DHT22;9124;48.144;17.098;2022-08-14T01:06:13;19.00;98.20
17998;DHT22;9124;48.144;17.098;2022-08-14T01:09:56;19.00;98.40
17998;DHT22;9124;48.144;17.098;2022-08-14T01:13:37;19.00;98.60
17998;DHT22;9124;48.144;17.098;2022-08-14T01:17:15;19.00;98.70
17998;DHT22;9124;48.144;17.098;2022-08-14T01:20:52;19.00;98.80
17998;DHT22;9124;48.144;17.098;2022-08-14T01:24:40;19.00;98.90
17998;DHT22;9124;48.144;17.098;2022-08-14T01:28:19;19.00;99.10
17998;DHT22;9124;48.144;17.098;2022-08-14T01:31:57;19.00;99.20
17998;DHT22;9124;48.144;17.098;2022-08-14T01:35:40;18.90;99.30
17998;DHT22;9124;48.144;17.098;2022-08-14T01:39:22;18.90;99.40
17998;DHT22;9124;48.144;17.098;2022-08-14T01:42:59;18.90;99.60
17998;DHT22;9124;48.144;17.098;2022-08-14T01:46:37;18.80;99.70
17998;DHT22;9124;48.144;17.098;2022-08-14T01:50:15;18.80;99.90
17998;DHT22;9124;48.144;17.098;2022-08-14T01:54:03;18.80;99.90
17998;DHT22;9124;48.144;17.098;2022-08-14T01:57:43;18.70;99.90
17998;DHT22;9124;48.144;17.098;2022-08-14T02:01:20;18.70;99.90
17998;DHT22;9124;48.144;17.098;2022-08-14T02:04:59;18.70;99.90
17998;DHT22;9124;48.144;17.098;2022-08-14T02:08:37;18.70;99.90
17998;DHT22;9124;48.144;17.098;2022-08-14T02:12:15;18.70;99.90
17998;DHT22;9124;48.144;17.098;2022-08-14T02:15:52;18.60;99.90
17998;DHT22;9124;48.144;17.098;2022-08-14T02:19:31;18.60;99.90
17998;DHT22;9124;48.144;17.098;2022-08-14T02:23:10;18.60;99.90
17998;DHT22;9124;48.144;17.098;2022-08-14T02:26:49;18.60;99.90
17998;DHT22;9124;48.144;17.098;2022-08-14T02:30:26;18.60;99.90
17998;DHT22;9124;48.144;17.098;2022-08-14T02:34:09;18.50;99.90
17998;DHT22;9124;48.144;17.098;2022-08-14T02:37:48;18.50;99.90
17998;DHT22;9124;48.144;17.098;2022-08-14T02:41:25;18.50;99.90
17998;DHT22;9124;48.144;17.098;2022-08-14T02:45:03;18.50;99.90
17998;DHT22;9124;48.144;17.098;2022-08-14T02:48:42;18.40;99.90
17998;DHT22;9124;48.144;17.098;2022-08-14T02:52:18;18.50;99.90
17998;DHT22;9124;48.144;17.098;2022-08-14T02:55:56;18.40;99.90
17998;DHT22;9124;48.144;17.098;2022-08-14T02:59:35;18.40;99.90
17998;DHT22;9124;48.144;17.098;2022-08-14T03:03:12;18.40;99.90
17998;DHT22;9124;48.144;17.098;2022-08-14T03:06:49;18.40;99.90
17998;DHT22;9124;48.144;17.098;2022-08-14T03:10:26;18.40;99.90
17998;DHT22;9124;48.144;17.098;2022-08-14T03:14:03;18.40;99.90
17998;DHT22;9124;48.144;17.098;2022-08-14T03:17:40;18.40;99.90
17998;DHT22;9124;48.144;17.098;2022-08-14T03:21:19;18.30;99.90
17998;DHT22;9124;48.144;17.098;2022-08-14T03:24:56;18.30;99.90
17998;DHT22;9124;48.144;17.098;2022-08-14T03:28:33;18.30;99.90
17998;DHT22;9124;48.144;17.098;2022-08-14T03:32:10;18.40;99.90
17998;DHT22;9124;48.144;17.098;2022-08-14T03:35:48;18.40;99.90
17998;DHT22;9124;48.144;17.098;2022-08-14T03:39:26;18.60;99.90
17998;DHT22;9124;48.144;17.098;2022-08-14T03:43:03;18.70;99.90
17998;DHT22;9124;48.144;17.098;2022-08-14T03:46:41;18.80;99.90
17998;DHT22;9124;48.144;17.098;2022-08-14T03:50:18;18.90;99.90
17998;DHT22;9124;48.144;17.098;2022-08-14T03:53:59;18.70;99.90
17998;DHT22;9124;48.144;17.098;2022-08-14T03:57:36;18.70;99.90
17998;DHT22;9124;48.144;17.098;2022-08-14T04:01:18;18.60;99.90
17998;DHT22;9124;48.144;17.098;2022-08-14T04:04:56;18.60;99.90
17998;DHT22;9124;48.144;17.098;2022-08-14T04:08:35;18.60;99.90
17998;DHT22;9124;48.144;17.098;2022-08-14T04:12:12;18.70;99.90
17998;DHT22;9124;48.144;17.098;2022-08-14T04:15:49;18.70;99.90
17998;DHT22;9124;48.144;17.098;2022-08-14T04:19:26;18.80;99.90
17998;DHT22;9124;48.144;17.098;2022-08-14T04:23:03;18.90;99.90
17998;DHT22;9124;48.144;17.098;2022-08-14T04:26:42;19.00;99.90
17998;DHT22;9124;48.144;17.098;2022-08-14T04:30:22;19.10;99.90
17998;DHT22;9124;48.144;17.098;2022-08-14T04:34:04;19.20;99.90
17998;DHT22;9124;48.144;17.098;2022-08-14T04:37:41;19.30;99.90
17998;DHT22;9124;48.144;17.098;2022-08-14T04:41:37;19.30;99.90
17998;DHT22;9124;48.144;17.098;2022-08-14T04:45:32;19.40;99.90
17998;DHT22;9124;48.144;17.098;2022-08-14T04:49:11;19.50;99.90
17998;DHT22;9124;48.144;17.098;2022-08-14T04:52:49;19.60;99.90
17998;DHT22;9124;48.144;17.098;2022-08-14T04:56:26;19.70;99.90
17998;DHT22;9124;48.144;17.098;2022-08-14T05:00:05;19.90;99.90
17998;DHT22;9124;48.144;17.098;2022-08-14T05:03:43;20.10;99.90
17998;DHT22;9124;48.144;17.098;2022-08-14T05:07:20;20.20;99.90
17998;DHT22;9124;48.144;17.098;2022-08-14T05:10:58;20.40;99.90
17998;DHT22;9124;48.144;17.098;2022-08-14T05:14:35;20.70;99.90
17998;DHT22;9124;48.144;17.098;2022-08-14T05:18:15;20.90;99.90
17998;DHT22;9124;48.144;17.098;2022-08-14T05:21:52;21.30;99.90
17998;DHT22;9124;48.144;17.098;2022-08-14T05:25:34;21.60;99.90
17998;DHT22;9124;48.144;17.098;2022-08-14T05:29:11;22.00;99.40
17998;DHT22;9124;48.144;17.098;2022-08-14T05:32:48;22.50;98.70
17998;DHT22;9124;48.144;17.098;2022-08-14T05:36:25;22.60;98.00
17998;DHT22;9124;48.144;17.098;2022-08-14T05:40:02;22.80;97.40
17998;DHT22;9124;48.144;17.098;2022-08-14T05:43:41;23.00;96.90
17998;DHT22;9124;48.144;17.098;2022-08-14T05:47:18;23.30;96.40
17998;DHT22;9124;48.144;17.098;2022-08-14T05:50:55;23.70;95.70
17998;DHT22;9124;48.144;17.098;2022-08-14T05:54:32;24.10;94.90
17998;DHT22;9124;48.144;17.098;2022-08-14T05:58:09;24.30;94.10
17998;DHT22;9124;48.144;17.098;2022-08-14T06:01:46;24.20;93.60
17998;DHT22;9124;48.144;17.098;2022-08-14T06:05:23;24.10;93.20
17998;DHT22;9124;48.144;17.098;2022-08-14T06:09:00;23.80;92.90
17998;DHT22;9124;48.144;17.098;2022-08-14T06:12:37;23.60;93.10
17998;DHT22;9124;48.144;17.098;2022-08-14T06:16:15;23.70;93.10
17998;DHT22;9124;48.144;17.098;2022-08-14T06:19:53;23.80;93.00
17998;DHT22;9124;48.144;17.098;2022-08-14T06:23:29;23.80;92.80
17998;DHT22;9124;48.144;17.098;2022-08-14T06:27:06;24.00;92.50
17998;DHT22;9124;48.144;17.098;2022-08-14T06:30:43;24.20;92.30
17998;DHT22;9124;48.144;17.098;2022-08-14T06:34:20;24.30;91.90
17998;DHT22;9124;48.144;17.098;2022-08-14T06:37:59;24.50;91.50
17998;DHT22;9124;48.144;17.098;2022-08-14T06:41:38;25.00;91.10
17998;DHT22;9124;48.144;17.098;2022-08-14T06:45:16;25.40;90.90
17998;DHT22;9124;48.144;17.098;2022-08-14T06:48:53;26.10;90.00
17998;DHT22;9124;48.144;17.098;2022-08-14T06:52:30;27.00;88.10
17998;DHT22;9124;48.144;17.098;2022-08-14T06:56:07;28.40;84.50
17998;DHT22;9124;48.144;17.098;2022-08-14T06:59:44;30.10;81.50
17998;DHT22;9124;48.144;17.098;2022-08-14T07:03:21;32.00;76.30
17998;DHT22;9124;48.144;17.098;2022-08-14T07:07:16;34.10;69.50
17998;DHT22;9124;48.144;17.098;2022-08-14T07:10:55;36.80;61.70
17998;DHT22;9124;48.144;17.098;2022-08-14T07:14:33;38.70;54.70
17998;DHT22;9124;48.144;17.098;2022-08-14T07:18:10;40.10;50.00
17998;DHT22;9124;48.144;17.098;2022-08-14T07:21:48;41.00;46.50
17998;DHT22;9124;48.144;17.098;2022-08-14T07:25:27;41.90;43.90
17998;DHT22;9124;48.144;17.098;2022-08-14T07:29:03;42.40;41.90
17998;DHT22;9124;48.144;17.098;2022-08-14T07:32:40;43.20;40.30
17998;DHT22;9124;48.144;17.098;2022-08-14T07:36:19;44.00;38.60
17998;DHT22;9124;48.144;17.098;2022-08-14T07:39:56;43.40;37.40
17998;DHT22;9124;48.144;17.098;2022-08-14T07:43:33;42.10;37.00
17998;DHT22;9124;48.144;17.098;2022-08-14T07:47:11;37.70;39.40
17998;DHT22;9124;48.144;17.098;2022-08-14T07:50:47;37.00;41.50
17998;DHT22;9124;48.144;17.098;2022-08-14T07:54:26;40.30;39.80
17998;DHT22;9124;48.144;17.098;2022-08-14T07:58:03;42.50;37.70
17998;DHT22;9124;48.144;17.098;2022-08-14T08:01:41;44.00;36.00
17998;DHT22;9124;48.144;17.098;2022-08-14T08:05:19;45.30;34.20
17998;DHT22;9124;48.144;17.098;2022-08-14T08:08:58;45.70;33.00
17998;DHT22;9124;48.144;17.098;2022-08-14T08:12:36;46.60;31.90
17998;DHT22;9124;48.144;17.098;2022-08-14T08:16:13;47.60;31.80
17998;DHT22;9124;48.144;17.098;2022-08-14T08:19:50;48.00;30.20
17998;DHT22;9124;48.144;17.098;2022-08-14T08:23:28;47.70;29.80
17998;DHT22;9124;48.144;17.098;2022-08-14T08:27:16;48.10;29.50
17998;DHT22;9124;48.144;17.098;2022-08-14T08:30:58;48.40;28.90
17998;DHT22;9124;48.144;17.098;2022-08-14T08:34:43;48.10;29.00
17998;DHT22;9124;48.144;17.098;2022-08-14T08:38:25;43.80;29.80
17998;DHT22;9124;48.144;17.098;2022-08-14T08:42:02;41.30;31.70
17998;DHT22;9124;48.144;17.098;2022-08-14T08:45:39;38.60;34.10
17998;DHT22;9124;48.144;17.098;2022-08-14T08:49:16;36.60;36.00
17998;DHT22;9124;48.144;17.098;2022-08-14T08:52:57;36.90;36.70
17998;DHT22;9124;48.144;17.098;2022-08-14T08:56:41;36.90;36.90
17998;DHT22;9124;48.144;17.098;2022-08-14T09:00:18;36.90;37.20
17998;DHT22;9124;48.144;17.098;2022-08-14T09:04:03;35.70;38.30
17998;DHT22;9124;48.144;17.098;2022-08-14T09:07:40;36.10;38.80
17998;DHT22;9124;48.144;17.098;2022-08-14T09:11:17;37.20;38.10
17998;DHT22;9124;48.144;17.098;2022-08-14T09:14:53;41.00;36.30
17998;DHT22;9124;48.144;17.098;2022-08-14T09:18:32;44.30;33.20
17998;DHT22;9124;48.144;17.098;2022-08-14T09:22:09;41.30;32.70
17998;DHT22;9124;48.144;17.098;2022-08-14T09:25:51;38.10;34.90
17998;DHT22;9124;48.144;17.098;2022-08-14T09:29:30;36.00;37.00
17998;DHT22;9124;48.144;17.098;2022-08-14T09:37:57;33.50;41.30
17998;DHT22;9124;48.144;17.098;2022-08-14T09:49:11;33.30;42.10
17998;DHT22;9124;48.144;17.098;2022-08-14T09:52:57;34.40;41.80
17998;DHT22;9124;48.144;17.098;2022-08-14T09:56:46;38.00;40.10
17998;DHT22;9124;48.144;17.098;2022-08-14T10:00:40;42.60;36.10
17998;DHT22;9124;48.144;17.098;2022-08-14T10:04:21;46.00;32.70
17998;DHT22;9124;48.144;17.098;2022-08-14T10:08:01;47.50;30.40
17998;DHT22;9124;48.144;17.098;2022-08-14T10:11:40;48.40;29.30
17998;DHT22;9124;48.144;17.098;2022-08-14T10:15:23;48.90;28.60
17998;DHT22;9124;48.144;17.098;2022-08-14T10:19:12;49.30;28.10
17998;DHT22;9124;48.144;17.098;2022-08-14T10:22:48;49.20;27.80
17998;DHT22;9124;48.144;17.098;2022-08-14T10:26:26;48.60;27.70
17998;DHT22;9124;48.144;17.098;2022-08-14T10:30:03;47.80;27.90
17998;DHT22;9124;48.144;17.098;2022-08-14T10:37:43;45.60;28.50
17998;DHT22;9124;48.144;17.098;2022-08-14T10:41:42;42.00;30.00
17998;DHT22;9124;48.144;17.098;2022-08-14T10:45:23;38.80;32.70
17998;DHT22;9124;48.144;17.098;2022-08-14T10:49:01;36.20;35.00
17998;DHT22;9124;48.144;17.098;2022-08-14T10:52:38;34.90;36.70
17998;DHT22;9124;48.144;17.098;2022-08-14T10:56:15;33.90;37.80
17998;DHT22;9124;48.144;17.098;2022-08-14T11:00:00;32.70;39.80
17998;DHT22;9124;48.144;17.098;2022-08-14T11:03:40;31.90;41.20
17998;DHT22;9124;48.144;17.098;2022-08-14T11:07:18;31.60;41.80
17998;DHT22;9124;48.144;17.098;2022-08-14T11:10:57;31.00;42.70
17998;DHT22;9124;48.144;17.098;2022-08-14T11:14:35;30.60;43.60
17998;DHT22;9124;48.144;17.098;2022-08-14T11:18:14;30.30;44.90
17998;DHT22;9124;48.144;17.098;2022-08-14T11:21:51;30.10;45.10
17998;DHT22;9124;48.144;17.098;2022-08-14T11:25:30;30.00;45.90
17998;DHT22;9124;48.144;17.098;2022-08-14T11:29:06;30.10;45.90
17998;DHT22;9124;48.144;17.098;2022-08-14T11:32:48;30.20;46.00
17998;DHT22;9124;48.144;17.098;2022-08-14T11:36:26;30.50;46.10
17998;DHT22;9124;48.144;17.098;2022-08-14T11:40:05;30.80;45.70
17998;DHT22;9124;48.144;17.098;2022-08-14T11:43:50;31.00;45.40
17998;DHT22;9124;48.144;17.098;2022-08-14T11:47:31;31.00;45.50
17998;DHT22;9124;48.144;17.098;2022-08-14T11:51:16;31.00;45.50
17998;DHT22;9124;48.144;17.098;2022-08-14T11:54:57;30.70;45.70
17998;DHT22;9124;48.144;17.098;2022-08-14T11:58:35;30.40;46.50
17998;DHT22;9124;48.144;17.098;2022-08-14T12:02:15;30.30;46.20
17998;DHT22;9124;48.144;17.098;2022-08-14T12:06:04;30.20;46.50
17998;DHT22;9124;48.144;17.098;2022-08-14T12:09:43;29.70;47.20
17998;DHT22;9124;48.144;17.098;2022-08-14T12:13:21;29.70;47.40
17998;DHT22;9124;48.144;17.098;2022-08-14T12:17:04;29.90;47.40
17998;DHT22;9124;48.144;17.098;2022-08-14T12:20:42;30.00;47.20
17998;DHT22;9124;48.144;17.098;2022-08-14T12:24:26;30.00;47.20
17998;DHT22;9124;48.144;17.098;2022-08-14T12:28:10;30.00;47.20
17998;DHT22;9124;48.144;17.098;2022-08-14T12:31:58;29.70;47.50
17998;DHT22;9124;48.144;17.098;2022-08-14T12:35:41;29.60;47.60
17998;DHT22;9124;48.144;17.098;2022-08-14T12:39:21;29.60;47.70
17998;DHT22;9124;48.144;17.098;2022-08-14T12:43:02;29.60;47.90
17998;DHT22;9124;48.144;17.098;2022-08-14T12:46:40;29.70;48.00
17998;DHT22;9124;48.144;17.098;2022-08-14T12:50:17;29.90;47.60
17998;DHT22;9124;48.144;17.098;2022-08-14T12:53:55;30.00;47.60
17998;DHT22;9124;48.144;17.098;2022-08-14T12:57:41;29.90;47.40
17998;DHT22;9124;48.144;17.098;2022-08-14T13:01:24;29.80;47.40
17998;DHT22;9124;48.144;17.098;2022-08-14T13:05:03;29.90;47.40
17998;DHT22;9124;48.144;17.098;2022-08-14T13:08:40;29.80;47.40
17998;DHT22;9124;48.144;17.098;2022-08-14T13:12:21;29.70;47.20
17998;DHT22;9124;48.144;17.098;2022-08-14T13:16:03;29.60;47.10
17998;DHT22;9124;48.144;17.098;2022-08-14T13:19:42;29.60;47.20
17998;DHT22;9124;48.144;17.098;2022-08-14T13:23:21;29.70;47.10
17998;DHT22;9124;48.144;17.098;2022-08-14T13:27:01;29.80;47.20
17998;DHT22;9124;48.144;17.098;2022-08-14T13:30:42;29.80;47.00
17998;DHT22;9124;48.144;17.098;2022-08-14T13:34:23;29.80;47.00
17998;DHT22;9124;48.144;17.098;2022-08-14T13:38:02;29.80;46.90
17998;DHT22;9124;48.144;17.098;2022-08-14T13:41:39;29.90;46.80
17998;DHT22;9124;48.144;17.098;2022-08-14T13:45:16;30.00;46.50
17998;DHT22;9124;48.144;17.098;2022-08-14T13:48:54;30.00;46.70
17998;DHT22;9124;48.144;17.098;2022-08-14T13:52:46;29.90;46.80
17998;DHT22;9124;48.144;17.098;2022-08-14T13:56:30;29.90;47.10
17998;DHT22;9124;48.144;17.098;2022-08-14T14:00:12;29.80;47.00
17998;DHT22;9124;48.144;17.098;2022-08-14T14:03:50;29.90;47.20
17998;DHT22;9124;48.144;17.098;2022-08-14T14:07:30;30.00;46.80
17998;DHT22;9124;48.144;17.098;2022-08-14T14:11:10;29.90;46.50
17998;DHT22;9124;48.144;17.098;2022-08-14T14:14:48;29.80;46.80
17998;DHT22;9124;48.144;17.098;2022-08-14T14:18:26;29.80;47.10
17998;DHT22;9124;48.144;17.098;2022-08-14T14:22:04;29.70;47.40
17998;DHT22;9124;48.144;17.098;2022-08-14T14:25:43;29.60;47.50
17998;DHT22;9124;48.144;17.098;2022-08-14T14:29:23;29.60;47.50
17998;DHT22;9124;48.144;17.098;2022-08-14T14:33:02;29.60;47.30
17998;DHT22;9124;48.144;17.098;2022-08-14T14:36:42;29.60;47.50
17998;DHT22;9124;48.144;17.098;2022-08-14T14:40:20;29.70;47.20
17998;DHT22;9124;48.144;17.098;2022-08-14T14:43:58;29.80;46.90
17998;DHT22;9124;48.144;17.098;2022-08-14T14:47:35;29.70;46.90
17998;DHT22;9124;48.144;17.098;2022-08-14T14:51:14;29.60;46.80
17998;DHT22;9124;48.144;17.098;2022-08-14T14:54:51;29.60;46.60
17998;DHT22;9124;48.144;17.098;2022-08-14T14:58:29;29.60;46.70
17998;DHT22;9124;48.144;17.098;2022-08-14T15:02:07;29.50;46.60
17998;DHT22;9124;48.144;17.098;2022-08-14T15:05:43;29.50;46.80
17998;DHT22;9124;48.144;17.098;2022-08-14T15:09:20;29.40;46.90
17998;DHT22;9124;48.144;17.098;2022-08-14T15:12:59;29.30;46.90
17998;DHT22;9124;48.144;17.098;2022-08-14T15:16:35;29.10;47.00
17998;DHT22;9124;48.144;17.098;2022-08-14T15:20:15;29.00;47.30
17998;DHT22;9124;48.144;17.098;2022-08-14T15:23:51;28.90;47.60
17998;DHT22;9124;48.144;17.098;2022-08-14T15:27:28;28.90;47.70
17998;DHT22;9124;48.144;17.098;2022-08-14T15:31:06;28.80;47.90
17998;DHT22;9124;48.144;17.098;2022-08-14T15:34:44;28.70;48.20
17998;DHT22;9124;48.144;17.098;2022-08-14T15:38:20;28.70;48.40
17998;DHT22;9124;48.144;17.098;2022-08-14T15:41:58;28.70;48.40
17998;DHT22;9124;48.144;17.098;2022-08-14T15:45:40;28.60;48.30
17998;DHT22;9124;48.144;17.098;2022-08-14T15:49:17;28.40;48.30
17998;DHT22;9124;48.144;17.098;2022-08-14T15:52:54;28.40;48.30
17998;DHT22;9124;48.144;17.098;2022-08-14T15:56:31;28.40;48.20
17998;DHT22;9124;48.144;17.098;2022-08-14T16:00:09;28.40;48.10
17998;DHT22;9124;48.144;17.098;2022-08-14T16:04:05;28.40;48.20
17998;DHT22;9124;48.144;17.098;2022-08-14T16:07:44;28.30;48.20
17998;DHT22;9124;48.144;17.098;2022-08-14T16:11:23;28.30;48.60
17998;DHT22;9124;48.144;17.098;2022-08-14T16:15:00;28.20;48.50
17998;DHT22;9124;48.144;17.098;2022-08-14T16:18:39;28.20;48.60
17998;DHT22;9124;48.144;17.098;2022-08-14T16:22:16;28.20;48.80
17998;DHT22;9124;48.144;17.098;2022-08-14T16:25:55;28.10;48.70
17998;DHT22;9124;48.144;17.098;2022-08-14T16:29:39;28.00;48.80
17998;DHT22;9124;48.144;17.098;2022-08-14T16:33:17;28.00;49.10
17998;DHT22;9124;48.144;17.098;2022-08-14T16:36:56;28.00;49.30
17998;DHT22;9124;48.144;17.098;2022-08-14T16:40:35;28.00;49.40
17998;DHT22;9124;48.144;17.098;2022-08-14T16:44:14;27.90;49.50
17998;DHT22;9124;48.144;17.098;2022-08-14T16:47:53;27.80;49.60
17998;DHT22;9124;48.144;17.098;2022-08-14T16:51:31;27.70;49.80
17998;DHT22;9124;48.144;17.098;2022-08-14T16:55:10;27.70;50.10
17998;DHT22;9124;48.144;17.098;2022-08-14T16:58:48;27.50;50.30
17998;DHT22;9124;48.144;17.098;2022-08-14T17:02:37;27.30;50.50
17998;DHT22;9124;48.144;17.098;2022-08-14T17:06:38;27.20;51.00
17998;DHT22;9124;48.144;17.098;2022-08-14T17:10:15;27.00;51.30
17998;DHT22;9124;48.144;17.098;2022-08-14T17:13:52;26.70;51.50
17998;DHT22;9124;48.144;17.098;2022-08-14T17:24:59;26.20;52.90
17998;DHT22;9124;48.144;17.098;2022-08-14T17:28:36;26.10;53.30
17998;DHT22;9124;48.144;17.098;2022-08-14T17:32:13;26.00;53.60
17998;DHT22;9124;48.144;17.098;2022-08-14T17:40:00;25.70;54.40
17998;DHT22;9124;48.144;17.098;2022-08-14T17:43:37;25.60;54.70
17998;DHT22;9124;48.144;17.098;2022-08-14T17:47:16;25.50;54.90
17998;DHT22;9124;48.144;17.098;2022-08-14T17:50:52;25.40;55.10
17998;DHT22;9124;48.144;17.098;2022-08-14T17:54:47;25.30;55.40
17998;DHT22;9124;48.144;17.098;2022-08-14T17:58:24;25.20;56.00
17998;DHT22;9124;48.144;17.098;2022-08-14T18:02:04;25.10;56.00
17998;DHT22;9124;48.144;17.098;2022-08-14T18:05:43;25.00;56.30
17998;DHT22;9124;48.144;17.098;2022-08-14T18:09:22;24.80;56.60
17998;DHT22;9124;48.144;17.098;2022-08-14T18:13:00;24.80;56.90
17998;DHT22;9124;48.144;17.098;2022-08-14T18:16:40;24.60;57.10
17998;DHT22;9124;48.144;17.098;2022-08-14T18:20:21;24.60;57.90
17998;DHT22;9124;48.144;17.098;2022-08-14T18:24:02;24.50;57.80
17998;DHT22;9124;48.144;17.098;2022-08-14T18:27:48;24.40;58.10
17998;DHT22;9124;48.144;17.098;2022-08-14T18:35:05;24.30;58.50
17998;DHT22;9124;48.144;17.098;2022-08-14T18:38:42;24.20;58.80
17998;DHT22;9124;48.144;17.098;2022-08-14T18:45:59;24.00;59.40
17998;DHT22;9124;48.144;17.098;2022-08-14T18:53:58;23.90;60.00
17998;DHT22;9124;48.144;17.098;2022-08-14T19:01:32;23.90;60.50
17998;DHT22;9124;48.144;17.098;2022-08-14T19:05:09;23.80;60.40
17998;DHT22;9124;48.144;17.098;2022-08-14T19:08:48;23.80;60.70
17998;DHT22;9124;48.144;17.098;2022-08-14T19:12:56;23.70;60.90
17998;DHT22;9124;48.144;17.098;2022-08-14T19:16:37;23.70;61.20
17998;DHT22;9124;48.144;17.098;2022-08-14T19:20:15;23.70;61.90
17998;DHT22;9124;48.144;17.098;2022-08-14T19:24:21;23.60;61.50
17998;DHT22;9124;48.144;17.098;2022-08-14T19:28:16;23.50;62.10
17998;DHT22;9124;48.144;17.098;2022-08-14T19:31:55;23.50;62.40
17998;DHT22;9124;48.144;17.098;2022-08-14T19:39:08;23.30;62.50
17998;DHT22;9124;48.144;17.098;2022-08-14T19:42:46;23.30;62.90
17998;DHT22;9124;48.144;17.098;2022-08-14T19:46:26;23.20;63.10
17998;DHT22;9124;48.144;17.098;2022-08-14T19:50:05;23.20;63.40
17998;DHT22;9124;48.144;17.098;2022-08-14T19:53:56;23.10;63.70
17998;DHT22;9124;48.144;17.098;2022-08-14T19:57:33;23.10;64.10
17998;DHT22;9124;48.144;17.098;2022-08-14T20:01:11;23.00;64.10
17998;DHT22;9124;48.144;17.098;2022-08-14T20:04:56;23.00;64.40
17998;DHT22;9124;48.144;17.098;2022-08-14T20:08:34;23.00;64.70
17998;DHT22;9124;48.144;17.098;2022-08-14T20:12:19;23.00;64.70
17998;DHT22;9124;48.144;17.098;2022-08-14T20:15:56;22.90;65.10
17998;DHT22;9124;48.144;17.098;2022-08-14T20:19:34;22.90;65.10
17998;DHT22;9124;48.144;17.098;2022-08-14T20:23:14;22.90;65.40
17998;DHT22;9124;48.144;17.098;2022-08-14T20:31:15;22.80;65.80
17998;DHT22;9124;48.144;17.098;2022-08-14T20:34:53;22.80;65.90
17998;DHT22;9124;48.144;17.098;2022-08-14T20:38:30;22.80;66.10
17998;DHT22;9124;48.144;17.098;2022-08-14T20:42:09;22.70;66.50
17998;DHT22;9124;48.144;17.098;2022-08-14T20:46:22;22.70;66.40
17998;DHT22;9124;48.144;17.098;2022-08-14T20:50:16;22.60;67.00
17998;DHT22;9124;48.144;17.098;2022-08-14T20:54:00;22.60;67.20
17998;DHT22;9124;48.144;17.098;2022-08-14T20:57:38;22.60;67.20
17998;DHT22;9124;48.144;17.098;2022-08-14T21:04:58;22.60;67.50
17998;DHT22;9124;48.144;17.098;2022-08-14T21:08:36;22.60;67.70
17998;DHT22;9124;48.144;17.098;2022-08-14T21:12:14;22.60;67.70
17998;DHT22;9124;48.144;17.098;2022-08-14T21:15:53;22.70;67.80
17998;DHT22;9124;48.144;17.098;2022-08-14T21:19:30;22.70;67.90
17998;DHT22;9124;48.144;17.098;2022-08-14T21:23:08;22.70;67.90
17998;DHT22;9124;48.144;17.098;2022-08-14T21:26:46;22.70;68.00
17998;DHT22;9124;48.144;17.098;2022-08-14T21:30:23;22.70;68.20
17998;DHT22;9124;48.144;17.098;2022-08-14T21:33:59;22.80;68.30
17998;DHT22;9124;48.144;17.098;2022-08-14T21:37:39;22.70;68.30
17998;DHT22;9124;48.144;17.098;2022-08-14T21:41:20;22.80;68.50
17998;DHT22;9124;48.144;17.098;2022-08-14T21:45:00;22.70;68.50
17998;DHT22;9124;48.144;17.098;2022-08-14T21:48:37;22.70;68.60
17998;DHT22;9124;48.144;17.098;2022-08-14T21:52:16;22.60;68.60
17998;DHT22;9124;48.144;17.098;2022-08-14T21:55:54;22.60;68.90
17998;DHT22;9124;48.144;17.098;2022-08-14T21:59:32;22.60;69.10
17998;DHT22;9124;48.144;17.098;2022-08-14T22:03:12;22.50;69.40
17998;DHT22;9124;48.144;17.098;2022-08-14T22:06:52;22.40;69.90
17998;DHT22;9124;48.144;17.098;2022-08-14T22:10:29;22.30;70.10
17998;DHT22;9124;48.144;17.098;2022-08-14T22:14:06;22.20;70.80
17998;DHT22;9124;48.144;17.098;2022-08-14T22:17:44;22.20;71.00
17998;DHT22;9124;48.144;17.098;2022-08-14T22:21:22;22.10;71.40
17998;DHT22;9124;48.144;17.098;2022-08-14T22:24:59;22.00;71.60
17998;DHT22;9124;48.144;17.098;2022-08-14T22:28:36;22.00;72.10
17998;DHT22;9124;48.144;17.098;2022-08-14T22:32:13;21.90;72.30
17998;DHT22;9124;48.144;17.098;2022-08-14T22:35:50;21.80;72.60
17998;DHT22;9124;48.144;17.098;2022-08-14T22:39:30;21.80;73.00
17998;DHT22;9124;48.144;17.098;2022-08-14T22:43:10;21.70;73.30
17998;DHT22;9124;48.144;17.098;2022-08-14T22:46:47;21.70;73.60
17998;DHT22;9124;48.144;17.098;2022-08-14T22:50:24;21.70;73.90
17998;DHT22;9124;48.144;17.098;2022-08-14T22:54:01;21.60;74.90
17998;DHT22;9124;48.144;17.098;2022-08-14T22:57:39;21.50;74.50
17998;DHT22;9124;48.144;17.098;2022-08-14T23:01:23;21.50;74.80
17998;DHT22;9124;48.144;17.098;2022-08-14T23:05:01;21.50;75.20
17998;DHT22;9124;48.144;17.098;2022-08-14T23:08:41;21.50;75.30
17998;DHT22;9124;48.144;17.098;2022-08-14T23:12:18;21.50;75.50
17998;DHT22;9124;48.144;17.098;2022-08-14T23:15:55;21.50;76.00
17998;DHT22;9124;48.144;17.098;2022-08-14T23:19:33;21.40;76.30
17998;DHT22;9124;48.144;17.098;2022-08-14T23:23:13;21.40;76.70
17998;DHT22;9124;48.144;17.098;2022-08-14T23:26:52;21.40;77.30
17998;DHT22;9124;48.144;17.098;2022-08-14T23:30:29;21.40;77.60
17998;DHT22;9124;48.144;17.098;2022-08-14T23:34:09;21.40;77.90
17998;DHT22;9124;48.144;17.098;2022-08-14T23:37:48;21.40;78.20
17998;DHT22;9124;48.144;17.098;2022-08-14T23:41:25;21.40;78.40
17998;DHT22;9124;48.144;17.098;2022-08-14T23:45:03;21.50;78.70
17998;DHT22;9124;48.144;17.098;2022-08-14T23:48:40;21.60;79.10
17998;DHT22;9124;48.144;17.098;2022-08-14T23:52:17;21.60;79.00
17998;DHT22;9124;48.144;17.098;2022-08-14T23:55:56;21.60;79.10
17998;DHT22;9124;48.144;17.098;2022-08-14T23:59:33;21.70;79.30
